Time;durP1;ratioP1;P1;durP2;ratioP2;P2;SDS_P1;SDS_P2;PMS_P1;PMS_P2;Temp;Humidity;BMP_temperature;BMP_pressure;BME280_temperature;BME280_humidity;BME280_pressure;Samples;Min_cycle;Max_cycle;Signal;HPM_P1;HPM_P2
2023/07/28 00:04:27;;;;;;;1.13;1.00;;;;;;;-145.68;100.00;72710.34;10214124;29;20224;-68
2023/07/28 00:09:28;;;;;;;1.50;1.20;;;;;;;-145.68;100.00;72702.34;10213385;29;20619;-68
2023/07/28 00:14:28;;;;;;;1.42;1.33;;;;;;;-145.68;100.00;72680.38;10213649;29;20235;-69
2023/07/28 00:19:28;;;;;;;1.73;1.08;;;;;;;-145.68;100.00;72670.38;10212774;29;20331;-68
2023/07/28 00:24:29;;;;;;;2.20;0.90;;;;;;;-145.68;100.00;72648.41;10212608;29;20274;-69
2023/07/28 00:29:29;;;;;;;1.33;1.23;;;;;;;-145.68;100.00;72642.41;10210455;29;20279;-69
2023/07/28 00:34:29;;;;;;;1.77;1.30;;;;;;;-145.68;100.00;72636.41;10196202;29;20355;-69
2023/07/28 00:39:30;;;;;;;1.23;1.15;;;;;;;-145.68;100.00;72636.41;10195003;29;20242;-69
2023/07/28 00:44:30;;;;;;;2.13;1.50;;;;;;;-145.68;100.00;72628.41;10212808;29;20294;-69
2023/07/28 00:49:31;;;;;;;1.20;1.13;;;;;;;-145.68;100.00;72610.44;10211234;29;20247;-69
2023/07/28 00:54:32;;;;;;;4.00;1.42;;;;;;;-145.68;100.00;72602.44;10212538;29;20268;-70
2023/07/28 00:59:32;;;;;;;1.73;1.45;;;;;;;-145.68;100.00;72582.44;10211028;29;20239;-69
2023/07/28 01:04:33;;;;;;;2.85;1.58;;;;;;;-145.68;100.00;72580.47;10212842;29;20226;-70
2023/07/28 01:09:47;;;;;;;3.25;1.25;;;;;;;-145.68;100.00;72568.47;10211118;29;20232;-70
2023/07/28 01:14:47;;;;;;;3.42;1.42;;;;;;;-145.68;100.00;72560.47;10210659;29;20468;-70
2023/07/28 01:19:47;;;;;;;2.85;1.38;;;;;;;-145.68;100.00;72560.47;10210763;29;20278;-69
2023/07/28 01:24:56;;;;;;;2.58;1.20;;;;;;;-145.68;100.00;72552.47;10211244;29;20230;-70
2023/07/28 01:29:56;;;;;;;1.42;1.30;;;;;;;-145.68;100.00;72536.50;10192133;29;20275;-68
2023/07/28 01:34:57;;;;;;;2.58;1.25;;;;;;;-145.68;100.00;72540.50;10193163;29;20294;-69
2023/07/28 01:39:57;;;;;;;1.15;1.13;;;;;;;-145.68;100.00;72546.47;10209065;29;20250;-69
2023/07/28 01:44:58;;;;;;;1.50;1.40;;;;;;;-145.68;100.00;72546.47;10192006;29;20706;-69
2023/07/28 01:49:58;;;;;;;3.13;1.33;;;;;;;-145.68;100.00;72550.47;10192765;29;20302;-69
2023/07/28 01:54:58;;;;;;;1.70;1.55;;;;;;;-145.68;100.00;72546.47;10193935;29;20299;-69
2023/07/28 01:59:59;;;;;;;1.52;1.42;;;;;;;-145.68;100.00;72548.47;10192289;29;20769;-69
2023/07/28 02:04:59;;;;;;;5.07;1.42;;;;;;;-145.68;100.00;72554.47;10210928;29;20710;-69
2023/07/28 02:10:00;;;;;;;3.65;1.13;;;;;;;-145.68;100.00;72550.47;10192051;29;20687;-68
2023/07/28 02:15:00;;;;;;;1.30;1.20;;;;;;;-145.68;100.00;72574.47;10192582;29;20294;-68
2023/07/28 02:20:03;;;;;;;1.30;1.20;;;;;;;-145.68;100.00;72576.47;10192281;29;20246;-69
2023/07/28 02:25:04;;;;;;;2.03;1.30;;;;;;;-145.68;100.00;72580.47;10209897;29;20705;-68
2023/07/28 02:30:05;;;;;;;2.15;1.27;;;;;;;-145.68;100.00;72592.44;10208064;29;20232;-68
2023/07/28 02:35:06;;;;;;;1.77;1.30;;;;;;;-145.68;100.00;72592.44;10209830;29;20211;-68
2023/07/28 02:40:07;;;;;;;3.72;1.00;;;;;;;-145.68;100.00;72594.44;10208337;29;20730;-68
2023/07/28 02:45:09;;;;;;;2.60;0.98;;;;;;;-145.68;100.00;72590.44;10193634;29;20239;-68
2023/07/28 02:50:10;;;;;;;1.10;1.00;;;;;;;-145.68;100.00;72588.44;10198679;29;20232;-69
2023/07/28 02:55:10;;;;;;;1.85;0.80;;;;;;;-145.68;100.00;72568.47;10217364;29;20299;-69
2023/07/28 03:00:11;;;;;;;4.80;1.17;;;;;;;-145.68;100.00;72572.47;10197669;29;20232;-69
2023/07/28 03:05:12;;;;;;;1.98;0.75;;;;;;;-145.68;100.00;72570.47;10199666;29;20204;-69
2023/07/28 03:10:44;;;;;;;1.27;1.17;;;;;;;-145.68;100.00;72580.47;10198922;29;20219;-69
2023/07/28 03:15:45;;;;;;;3.10;1.00;;;;;;;-145.68;100.00;72576.47;10199350;29;20631;-69
2023/07/28 03:20:46;;;;;;;0.88;0.88;;;;;;;-145.68;100.00;72570.47;10198174;29;20232;-69
2023/07/28 03:25:46;;;;;;;1.15;0.80;;;;;;;-145.68;100.00;72570.47;10198846;29;20231;-69
2023/07/28 03:30:47;;;;;;;0.70;0.70;;;;;;;-145.68;100.00;72574.47;10197452;29;20239;-69
2023/07/28 03:35:47;;;;;;;1.95;0.70;;;;;;;-145.68;100.00;72544.50;10214960;29;20632;-69
2023/07/28 03:40:48;;;;;;;1.85;0.90;;;;;;;-145.68;100.00;72546.47;10197502;29;20227;-68
2023/07/28 03:45:48;;;;;;;1.70;0.82;;;;;;;-145.68;100.00;72544.50;10214629;29;20220;-69
2023/07/28 03:50:49;;;;;;;2.47;0.90;;;;;;;-145.68;100.00;72536.50;10196812;29;20240;-69
2023/07/28 03:55:49;;;;;;;1.65;0.65;;;;;;;-145.68;100.00;72534.50;10214870;29;20637;-69
2023/07/28 04:00:50;;;;;;;1.10;0.63;;;;;;;-145.68;100.00;72552.47;10213777;29;20236;-69
2023/07/28 04:05:50;;;;;;;1.75;0.80;;;;;;;-145.68;100.00;72530.50;10214779;29;20211;-69
2023/07/28 04:10:50;;;;;;;0.75;0.75;;;;;;;-145.68;100.00;72526.50;10213548;29;20725;-69
2023/07/28 04:15:51;;;;;;;1.92;0.90;;;;;;;-145.68;100.00;72528.50;10214305;29;20291;-69
2023/07/28 04:20:51;;;;;;;0.80;0.80;;;;;;;-145.68;100.00;72530.50;10212877;29;20613;-69
2023/07/28 04:25:52;;;;;;;0.70;0.70;;;;;;;-145.68;100.00;72518.50;10196632;29;20266;-69
2023/07/28 04:30:52;;;;;;;1.98;0.80;;;;;;;-145.68;100.00;72532.50;10195318;29;20243;-69
2023/07/28 04:36:22;;;;;;;1.63;0.93;;;;;;;-145.68;100.00;72514.50;10204441;29;20200;-69
2023/07/28 04:41:22;;;;;;;0.80;0.80;;;;;;;-145.68;100.00;72524.50;10211144;29;20244;-69
2023/07/28 04:46:26;;;;;;;0.68;0.68;;;;;;;-145.68;100.00;72518.50;10212959;29;20211;-69
2023/07/28 04:51:30;;;;;;;0.73;0.73;;;;;;;-145.68;100.00;72496.53;10193133;29;20278;-69
2023/07/28 04:56:52;;;;;;;1.33;1.23;;;;;;;-145.68;100.00;72500.53;10208760;29;20208;-69
2023/07/28 05:01:53;;;;;;;1.27;0.88;;;;;;;-145.68;100.00;72498.53;10193378;29;20244;-69
2023/07/28 05:06:53;;;;;;;2.13;1.00;;;;;;;-145.68;100.00;72512.50;10205226;29;20208;-70
2023/07/28 05:11:54;;;;;;;1.45;0.98;;;;;;;-145.68;100.00;72492.53;10210212;29;20242;-69
2023/07/28 05:16:54;;;;;;;0.70;0.70;;;;;;;-145.68;100.00;72514.50;10211999;29;20206;-69
2023/07/28 05:22:06;;;;;;;0.75;0.70;;;;;;;-145.68;100.00;72512.50;10193611;29;20287;-70
2023/07/28 05:27:27;;;;;;;2.75;0.90;;;;;;;-145.68;100.00;72524.50;10211236;29;20238;-70
2023/07/28 05:32:27;;;;;;;0.70;0.70;;;;;;;-145.68;100.00;72520.50;10210312;29;20243;-70
2023/07/28 05:37:44;;;;;;;1.50;0.70;;;;;;;-145.68;100.00;72512.50;10193672;29;20207;-70
2023/07/28 05:42:45;;;;;;;0.82;0.82;;;;;;;-145.68;100.00;72522.50;10211030;29;20701;-70
2023/07/28 05:47:45;;;;;;;0.70;0.70;;;;;;;-145.68;100.00;72526.50;10193840;29;20639;-70
2023/07/28 05:52:46;;;;;;;0.70;0.70;;;;;;;-145.68;100.00;72540.50;10193845;29;20282;-70
2023/07/28 05:57:47;;;;;;;3.17;0.80;;;;;;;-145.68;100.00;72508.50;10193379;29;20742;-70
2023/07/28 06:02:47;;;;;;;1.08;0.90;;;;;;;-145.68;100.00;72508.50;10194028;29;20275;-70
2023/07/28 06:08:04;;;;;;;0.98;0.88;;;;;;;-145.68;100.00;72494.53;10193460;29;20227;-70
2023/07/28 06:13:04;;;;;;;0.60;0.60;;;;;;;-145.68;100.00;72510.50;10210469;29;20291;-70
2023/07/28 06:18:06;;;;;;;2.25;0.50;;;;;;;-145.68;100.00;72488.53;10193145;29;20450;-70
2023/07/28 06:23:06;;;;;;;3.17;1.02;;;;;;;-145.68;100.00;72520.50;10200557;29;20263;-71
2023/07/28 06:28:06;;;;;;;1.05;0.77;;;;;;;-145.68;100.00;72516.50;10218211;29;20647;-71
2023/07/28 06:33:07;;;;;;;0.82;0.82;;;;;;;-145.68;100.00;72542.50;10217877;29;20678;-71
2023/07/28 06:38:08;;;;;;;3.25;1.13;;;;;;;-145.68;100.00;72558.47;10217802;29;20227;-71
2023/07/28 06:43:08;;;;;;;2.05;0.75;;;;;;;-145.68;100.00;72584.44;10217688;29;20204;-72
2023/07/28 06:48:09;;;;;;;0.80;0.63;;;;;;;-145.68;100.00;72580.47;10200264;29;20231;-71
2023/07/28 06:53:09;;;;;;;3.05;0.50;;;;;;;-145.68;100.00;72546.47;10217432;29;20290;-72
2023/07/28 06:58:10;;;;;;;1.08;0.70;;;;;;;-145.68;100.00;72496.53;10199925;29;20231;-72
2023/07/28 07:03:11;;;;;;;0.60;0.60;;;;;;;-145.68;100.00;72476.53;10200082;29;20682;-70
2023/07/28 07:08:12;;;;;;;0.50;0.50;;;;;;;-145.68;100.00;72500.53;10216694;29;20323;-70
2023/07/28 07:13:12;;;;;;;0.60;0.60;;;;;;;-145.68;100.00;72478.53;10199477;29;20258;-70
2023/07/28 07:18:12;;;;;;;0.50;0.50;;;;;;;-145.68;100.00;72460.56;10216559;29;20228;-71
2023/07/28 07:23:13;;;;;;;0.43;0.40;;;;;;;-145.68;100.00;72394.63;10216074;29;20251;-71
2023/07/28 07:28:13;;;;;;;0.40;0.40;;;;;;;-145.68;100.00;72394.63;10216147;29;20725;-70
2023/07/28 07:33:13;;;;;;;0.30;0.30;;;;;;;-145.68;100.00;72420.59;10215053;29;20265;-69
2023/07/28 07:38:14;;;;;;;0.50;0.50;;;;;;;-145.68;100.00;72368.63;10215573;29;20232;-70
2023/07/28 07:43:20;;;;;;;1.65;0.50;;;;;;;-145.68;100.00;72372.63;10215545;29;20215;-69
2023/07/28 07:48:20;;;;;;;0.30;0.30;;;;;;;-145.68;99.41;72376.63;10215048;29;20240;-69
2023/07/28 07:53:20;;;;;;;0.40;0.40;;;;;;;-145.68;96.57;72360.66;10215308;29;20235;-69
2023/07/28 07:58:21;;;;;;;0.70;0.32;;;;;;;-145.68;96.75;72364.63;10214572;29;20371;-69
2023/07/28 08:03:21;;;;;;;0.30;0.30;;;;;;;-145.68;97.46;72360.66;10214601;29;20215;-70
2023/07/28 08:08:21;;;;;;;0.30;0.30;;;;;;;-145.68;95.61;72364.63;10213556;29;20324;-69
2023/07/28 08:13:22;;;;;;;0.40;0.40;;;;;;;-145.68;93.16;72276.72;10214026;29;20726;-70
2023/07/28 08:18:23;;;;;;;0.30;0.30;;;;;;;-145.68;81.25;72180.81;10214197;29;20243;-69
2023/07/28 08:23:23;;;;;;;0.43;0.43;;;;;;;-145.68;76.77;72182.81;10213728;29;20318;-69
2023/07/28 08:28:24;;;;;;;2.47;0.40;;;;;;;-145.68;80.96;72260.72;10213797;29;20232;-68
2023/07/28 08:33:24;;;;;;;0.40;0.40;;;;;;;-145.68;80.43;72272.72;10213367;29;20247;-67
2023/07/28 08:38:24;;;;;;;0.40;0.40;;;;;;;-145.68;81.84;72304.69;10213260;29;20228;-68
2023/07/28 08:43:25;;;;;;;0.28;0.28;;;;;;;-145.68;82.89;72316.69;10212502;29;20243;-67
2023/07/28 08:48:25;;;;;;;0.40;0.40;;;;;;;-145.68;81.36;72256.75;10212771;29;20227;-66
2023/07/28 08:53:26;;;;;;;2.22;0.40;;;;;;;-145.68;78.08;72234.75;10212617;29;20224;-68
2023/07/28 08:58:26;;;;;;;0.30;0.30;;;;;;;-145.68;76.88;72260.72;10212851;29;20322;-67
2023/07/28 09:03:27;;;;;;;0.30;0.30;;;;;;;-145.68;78.57;72260.72;10213033;29;20220;-67
2023/07/28 09:08:30;;;;;;;0.60;0.38;;;;;;;-145.68;77.37;72230.75;10212303;29;20272;-68
2023/07/28 09:13:43;;;;;;;3.63;0.30;;;;;;;-145.68;82.30;72356.66;10211927;29;20239;-67
2023/07/28 09:18:43;;;;;;;2.85;0.40;;;;;;;-145.68;84.97;72308.69;10212114;29;20283;-68
2023/07/28 09:23:44;;;;;;;0.43;0.43;;;;;;;-145.68;77.86;72158.84;10211651;29;20220;-69
2023/07/28 09:28:44;;;;;;;0.50;0.40;;;;;;;-145.68;74.92;72224.78;10211520;29;20231;-67
2023/07/28 09:33:46;;;;;;;0.40;0.40;;;;;;;-145.68;77.83;72260.72;10211508;29;20235;-68
2023/07/28 09:38:47;;;;;;;0.57;0.50;;;;;;;-145.68;72.84;72184.81;10211029;29;20231;-69
2023/07/28 09:43:49;;;;;;;0.38;0.38;;;;;;;-145.68;74.18;72190.81;10194153;29;20729;-69
2023/07/28 09:48:52;;;;;;;1.00;0.43;;;;;;;-145.68;73.45;72154.84;10210685;29;20235;-68
2023/07/28 09:53:56;;;;;;;3.90;0.50;;;;;;;-145.68;70.56;72138.84;10193753;29;20232;-67
2023/07/28 09:58:57;;;;;;;0.30;0.30;;;;;;;-145.68;70.21;72146.84;10210671;29;20224;-69
2023/07/28 10:03:58;;;;;;;1.65;0.35;;;;;;;-145.68;69.39;72108.88;10210530;29;20701;-67
2023/07/28 10:08:59;;;;;;;0.47;0.47;;;;;;;-145.68;65.62;72066.91;10193694;29;20224;-67
2023/07/28 10:13:59;;;;;;;1.33;0.47;;;;;;;-145.68;70.77;72238.75;10210250;29;20706;-67
2023/07/28 10:19:00;;;;;;;0.68;0.40;;;;;;;-145.68;74.17;72226.75;10210343;29;20255;-69
2023/07/28 10:24:00;;;;;;;0.95;0.40;;;;;;;-145.68;70.66;72170.81;10210130;29;20716;-68
2023/07/28 10:29:11;;;;;;;1.38;0.40;;;;;;;-145.68;66.03;72044.94;10209975;29;20315;-69
2023/07/28 10:34:16;;;;;;;1.35;0.43;;;;;;;-145.68;64.45;72028.94;10209965;29;20238;-69
2023/07/28 10:39:17;;;;;;;0.30;0.30;;;;;;;-145.68;63.63;72018.97;10210012;29;20228;-72
2023/07/28 10:44:18;;;;;;;0.40;0.40;;;;;;;-145.68;62.09;72006.97;10209972;29;20215;-69
2023/07/28 10:49:19;;;;;;;0.73;0.40;;;;;;;-145.68;60.44;71957.03;10230850;23;20252;-66
2023/07/28 10:54:20;;;;;;;0.50;0.50;;;;;;;-145.68;59.90;71957.03;10209259;29;20235;-67
2023/07/28 10:59:21;;;;;;;0.40;0.40;;;;;;;-145.68;55.60;71747.25;10209617;29;20733;-67
2023/07/28 11:04:23;;;;;;;0.50;0.50;;;;;;;-145.68;55.33;71809.16;10209908;29;20227;-66
2023/07/28 11:09:23;;;;;;;2.50;0.50;;;;;;;-145.68;55.38;71771.22;10215050;29;20236;-65
2023/07/28 11:14:24;;;;;;;0.40;0.40;;;;;;;-145.68;53.06;71741.25;10216567;29;20662;-65
2023/07/28 11:19:24;;;;;;;1.65;0.30;;;;;;;-145.68;54.64;71687.31;10199424;29;20869;-67
2023/07/28 11:24:26;;;;;;;2.05;0.40;;;;;;;-145.68;51.31;71531.47;10216279;29;20228;-67
2023/07/28 11:29:26;;;;;;;0.60;0.32;;;;;;;-145.68;53.09;71747.25;10216128;29;20220;-66
2023/07/28 11:34:27;;;;;;;2.88;0.40;;;;;;;-145.68;52.78;71701.28;10198935;29;20236;-67
2023/07/28 11:39:27;;;;;;;0.60;0.57;;;;;;;-145.68;50.06;71525.47;10215794;29;20736;-67
2023/07/28 11:44:28;;;;;;;1.85;0.50;;;;;;;-145.68;51.77;71687.31;10199390;29;20219;-67
2023/07/28 11:49:28;;;;;;;0.50;0.50;;;;;;;-145.68;51.69;71717.28;10216491;29;20224;-68
2023/07/28 11:54:29;;;;;;;2.63;0.40;;;;;;;-145.68;49.80;71635.34;10214987;29;20301;-67
2023/07/28 11:59:29;;;;;;;0.40;0.40;;;;;;;-145.68;48.95;71547.44;10214024;29;20239;-66
2023/07/28 12:04:31;;;;;;;0.80;0.50;;;;;;;-145.68;49.61;71577.41;10197756;29;20212;-67
2023/07/28 12:09:48;;;;;;;2.17;0.50;;;;;;;-145.68;50.05;71641.34;10214636;29;20235;-66
2023/07/28 12:14:51;;;;;;;0.60;0.60;;;;;;;-145.68;52.74;71829.16;10214283;29;20232;-67
2023/07/28 12:19:55;;;;;;;3.08;0.60;;;;;;;-145.68;53.54;71821.16;10214396;29;20666;-67
2023/07/28 12:24:56;;;;;;;2.83;0.50;;;;;;;-145.68;51.85;71711.28;10214078;29;20224;-66
2023/07/28 12:29:56;;;;;;;1.33;0.60;;;;;;;-145.68;46.87;71305.72;10213778;29;20227;-67
2023/07/28 12:34:57;;;;;;;0.50;0.50;;;;;;;-145.68;42.53;71187.84;10213826;29;20223;-66
2023/07/28 12:39:57;;;;;;;3.70;0.53;;;;;;;-145.68;42.98;71261.78;10211710;29;20220;-66
2023/07/28 12:44:57;;;;;;;1.80;0.50;;;;;;;-145.68;45.60;71437.56;10213577;29;20455;-67
2023/07/28 12:49:58;;;;;;;0.45;0.45;;;;;;;-145.68;43.29;71345.69;10212854;29;20486;-67
2023/07/28 12:54:58;;;;;;;0.50;0.50;;;;;;;-145.68;43.94;71315.72;10212226;29;20834;-67
2023/07/28 12:59:59;;;;;;;0.50;0.50;;;;;;;-145.68;44.93;71381.63;10210039;29;21028;-66
2023/07/28 13:04:59;;;;;;;0.50;0.40;;;;;;;-145.68;45.07;71473.53;10210376;29;20224;-66
2023/07/28 13:09:59;;;;;;;0.40;0.40;;;;;;;-145.68;46.76;71583.41;10212496;29;20752;-67
2023/07/28 13:15:00;;;;;;;1.23;0.50;;;;;;;-145.68;45.98;71635.34;10211842;29;20706;-66
2023/07/28 13:20:00;;;;;;;0.65;0.50;;;;;;;-145.68;44.55;71575.41;10212306;29;20242;-66
2023/07/28 13:25:01;;;;;;;0.60;0.60;;;;;;;-145.68;43.41;71433.56;10211796;29;20790;-66
2023/07/28 13:30:04;;;;;;;0.85;0.50;;;;;;;-145.68;45.11;71529.47;10211202;29;20228;-68
2023/07/28 13:35:05;;;;;;;0.50;0.50;;;;;;;-145.68;43.91;71473.53;10211486;29;20694;-66
2023/07/28 13:40:06;;;;;;;0.60;0.60;;;;;;;-145.68;41.95;71333.69;10211116;29;20227;-66
2023/07/28 13:45:08;;;;;;;0.88;0.60;;;;;;;-145.68;41.14;71209.84;10211488;29;20216;-67
2023/07/28 13:50:09;;;;;;;1.77;0.50;;;;;;;-145.68;42.83;71491.50;10210865;29;20239;-66
2023/07/28 13:55:09;;;;;;;0.63;0.47;;;;;;;-145.68;44.77;71475.53;10210892;29;20204;-68
2023/07/28 14:00:10;;;;;;;0.50;0.50;;;;;;;-145.68;44.82;71447.56;10210661;29;20231;-67
2023/07/28 14:05:11;;;;;;;2.72;0.60;;;;;;;-145.68;44.45;71513.50;10210448;29;20634;-66
2023/07/28 14:10:11;;;;;;;2.20;0.60;;;;;;;-145.68;45.70;71589.41;10210483;29;20270;-66
2023/07/28 14:15:11;;;;;;;2.33;0.43;;;;;;;-145.68;44.25;71455.56;10210416;29;20203;-67
2023/07/28 14:20:12;;;;;;;0.40;0.40;;;;;;;-145.68;40.45;71135.91;10210470;29;20227;-67
2023/07/28 14:25:12;;;;;;;0.50;0.50;;;;;;;-145.68;39.15;71187.84;10210356;29;20295;-67
2023/07/28 14:30:12;;;;;;;0.60;0.60;;;;;;;-145.68;37.43;71014.06;10210058;29;20828;-67
2023/07/28 14:35:14;;;;;;;2.88;0.50;;;;;;;-145.68;38.98;71153.91;10210184;29;20451;-67
2023/07/28 14:40:14;;;;;;;0.60;0.50;;;;;;;-145.68;43.03;71473.53;10209947;29;20319;-67
2023/07/28 14:45:15;;;;;;;0.40;0.40;;;;;;;-145.68;43.82;71581.41;10217269;29;20351;-66
2023/07/28 14:50:15;;;;;;;0.40;0.40;;;;;;;-145.68;43.79;71501.50;10217451;29;20463;-66
2023/07/28 14:55:15;;;;;;;0.60;0.60;;;;;;;-145.68;46.79;71735.25;10217270;29;20694;-66
2023/07/28 15:00:16;;;;;;;0.93;0.50;;;;;;;-145.68;46.61;71693.28;10217331;29;20660;-66
2023/07/28 15:05:16;;;;;;;0.63;0.63;;;;;;;-145.68;46.50;71633.34;10217004;29;20621;-67
2023/07/28 15:10:17;;;;;;;0.50;0.50;;;;;;;-145.68;43.89;71407.59;10225919;28;20231;-67
2023/07/28 15:15:17;;;;;;;2.97;0.65;;;;;;;-145.68;44.18;71479.53;10255962;29;20207;-66
2023/07/28 15:20:19;;;;;;;0.68;0.50;;;;;;;-145.68;48.10;71721.25;10255956;28;20663;-66
2023/07/28 15:25:20;;;;;;;2.22;0.70;;;;;;;-145.68;49.35;71755.22;10256114;29;20279;-66
2023/07/28 15:30:20;;;;;;;0.82;0.63;;;;;;;-145.68;49.31;71749.22;10255515;28;20660;-66
2023/07/28 15:35:21;;;;;;;0.60;0.60;;;;;;;-145.68;48.73;71629.38;10255548;29;20211;-67
2023/07/28 15:40:21;;;;;;;0.98;0.70;;;;;;;-145.68;49.38;71683.31;10255546;28;20234;-66
2023/07/28 15:45:21;;;;;;;3.25;0.75;;;;;;;-145.68;49.36;71735.25;10255022;29;20208;-66
2023/07/28 15:50:22;;;;;;;0.60;0.60;;;;;;;-145.68;51.70;71899.09;10254947;28;20318;-66
2023/07/28 15:55:22;;;;;;;1.27;0.70;;;;;;;-145.68;51.32;71863.13;10229124;28;20224;-67
2023/07/28 16:00:22;;;;;;;1.30;0.70;;;;;;;-145.68;51.74;71889.09;10214941;29;20623;-67
2023/07/28 16:05:23;;;;;;;1.42;1.33;;;;;;;-145.68;54.47;71973.00;10215081;29;20636;-67
2023/07/28 16:10:23;;;;;;;2.20;0.50;;;;;;;-145.68;55.19;71949.03;10214402;29;20577;-67
2023/07/28 16:15:24;;;;;;;0.75;0.68;;;;;;;-145.68;59.11;71963.03;10214807;29;20622;-67
2023/07/28 16:20:24;;;;;;;7.00;1.00;;;;;;;-145.68;72.11;72076.91;10214052;29;20228;-66
2023/07/28 16:25:24;;;;;;;2.50;0.95;;;;;;;-145.68;86.83;72152.84;10214350;29;20199;-66
2023/07/28 16:30:25;;;;;;;2.80;1.30;;;;;;;-145.68;100.00;72220.78;10213909;29;20251;-67
2023/07/28 16:35:25;;;;;;;1.40;0.90;;;;;;;-145.68;100.00;72220.78;10213656;29;20697;-67
2023/07/28 16:40:25;;;;;;;6.40;1.25;;;;;;;-145.68;100.00;72236.75;10212094;29;20605;-67
2023/07/28 16:45:26;;;;;;;1.67;1.00;;;;;;;-145.68;100.00;72252.75;10213209;29;20226;-67
2023/07/28 16:50:26;;;;;;;6.97;1.20;;;;;;;-145.68;100.00;72242.75;10247693;23;20874;-70
2023/07/28 16:55:27;;;;;;;1.23;1.10;;;;;;;-145.68;100.00;72228.75;10227848;29;20730;-69
2023/07/28 17:00:27;;;;;;;2.55;1.00;;;;;;;-145.68;100.00;72208.78;10212723;29;20762;-69
2023/07/28 17:05:27;;;;;;;3.95;1.40;;;;;;;-145.68;100.00;72150.84;10210252;29;20732;-70
2023/07/28 17:10:28;;;;;;;1.77;1.23;;;;;;;-145.68;100.00;72090.91;10212036;29;20231;-69
2023/07/28 17:15:28;;;;;;;2.08;1.00;;;;;;;-145.68;100.00;72098.88;10210806;29;20216;-70
2023/07/28 17:20:30;;;;;;;0.90;0.90;;;;;;;-145.68;95.52;72110.88;10211925;29;20322;-69
2023/07/28 17:25:30;;;;;;;1.10;1.00;;;;;;;-145.68;90.83;72112.88;10211052;29;20219;-69
2023/07/28 17:30:31;;;;;;;3.65;1.40;;;;;;;-145.68;93.72;72110.88;10211488;29;20648;-69
2023/07/28 17:35:31;;;;;;;2.53;1.83;;;;;;;-145.68;93.43;72160.81;10210770;29;20226;-68
2023/07/28 17:40:31;;;;;;;2.75;0.85;;;;;;;-145.68;90.18;72190.81;10210814;29;20240;-68
2023/07/28 17:45:32;;;;;;;1.00;1.00;;;;;;;-145.68;89.71;72220.78;10209483;29;20356;-68
2023/07/28 17:50:33;;;;;;;1.23;1.13;;;;;;;-145.68;91.06;72244.75;10210898;29;20239;-69
2023/07/28 17:55:33;;;;;;;0.70;0.70;;;;;;;-145.68;90.81;72212.78;10210395;29;20211;-68
2023/07/28 18:00:33;;;;;;;0.80;0.80;;;;;;;-145.68;90.11;72208.78;10209765;29;20239;-69
2023/07/28 18:05:34;;;;;;;0.70;0.70;;;;;;;-145.68;86.05;72202.78;10210715;29;20675;-68
2023/07/28 18:10:34;;;;;;;0.90;0.80;;;;;;;-145.68;86.86;72242.75;10209259;29;20776;-69
2023/07/28 18:15:35;;;;;;;0.70;0.70;;;;;;;-145.68;80.03;72252.75;10212128;29;20215;-70
2023/07/28 18:20:35;;;;;;;0.77;0.77;;;;;;;-145.68;80.07;72248.75;10217302;29;20247;-68
2023/07/28 18:25:35;;;;;;;1.15;0.70;;;;;;;-145.68;81.94;72290.72;10218538;29;20588;-69
2023/07/28 18:30:36;;;;;;;2.45;1.20;;;;;;;-145.68;79.38;72256.75;10192844;29;20244;-69
2023/07/28 18:35:36;;;;;;;2.33;0.98;;;;;;;-145.68;79.68;72262.72;10178985;29;20299;-68
2023/07/28 18:40:37;;;;;;;0.77;0.70;;;;;;;-145.68;83.48;72282.72;10199832;29;20227;-69
2023/07/28 18:45:37;;;;;;;0.90;0.82;;;;;;;-145.68;87.31;72328.69;10211615;29;20213;-69
2023/07/28 18:50:40;;;;;;;0.93;0.80;;;;;;;-145.68;93.22;72398.63;10210186;29;20294;-69
2023/07/28 18:55:41;;;;;;;2.45;0.82;;;;;;;-145.68;96.92;72448.56;10247398;29;20250;-68
2023/07/28 19:00:41;;;;;;;4.15;3.00;;;;;;;-145.68;100.00;72468.56;10256718;29;20250;-68
2023/07/28 19:05:42;;;;;;;38.60;27.65;;;;;;;-145.68;100.00;72542.50;10221833;29;20216;-68
2023/07/28 19:10:44;;;;;;;1.00;1.00;;;;;;;-145.68;100.00;72594.44;10216901;29;20240;-68
2023/07/28 19:15:44;;;;;;;1.33;1.23;;;;;;;-145.68;100.00;72608.44;10216508;29;20244;-68
2023/07/28 19:20:45;;;;;;;1.40;1.10;;;;;;;-145.68;100.00;72624.41;10204102;29;20244;-68
2023/07/28 19:25:46;;;;;;;1.15;1.13;;;;;;;-145.68;100.00;72616.44;10202738;29;20295;-68
2023/07/28 19:30:47;;;;;;;1.48;1.30;;;;;;;-145.68;100.00;72636.41;10212302;29;20280;-68
2023/07/28 19:35:47;;;;;;;16.10;9.75;;;;;;;-145.68;100.00;72664.38;10202400;29;20698;-69
2023/07/28 19:40:47;;;;;;;4.53;3.78;;;;;;;-145.68;100.00;72666.38;10206221;29;20242;-69
2023/07/28 19:45:48;;;;;;;1.30;1.25;;;;;;;-145.68;100.00;72660.38;10203306;29;20226;-69
2023/07/28 19:50:50;;;;;;;1.42;1.20;;;;;;;-145.68;100.00;72664.38;10213265;29;20235;-69
2023/07/28 19:55:50;;;;;;;1.25;1.20;;;;;;;-145.68;100.00;72672.38;10215218;29;20212;-69
2023/07/28 20:00:50;;;;;;;1.63;1.30;;;;;;;-145.68;100.00;72686.38;10214736;29;20750;-69
2023/07/28 20:05:51;;;;;;;1.67;1.25;;;;;;;-145.68;100.00;72690.38;10214522;29;20212;-69
2023/07/28 20:10:52;;;;;;;1.42;1.30;;;;;;;-145.68;100.00;72678.38;10214470;29;20239;-69
2023/07/28 20:15:54;;;;;;;2.80;1.23;;;;;;;-145.68;100.00;72682.38;10214012;29;20220;-69
2023/07/28 20:20:54;;;;;;;1.70;1.50;;;;;;;-145.68;100.00;72668.38;10214189;29;20660;-69
2023/07/28 20:25:54;;;;;;;1.42;1.25;;;;;;;-145.68;100.00;72682.38;10213856;29;20248;-68
2023/07/28 20:30:55;;;;;;;1.20;1.10;;;;;;;-145.68;100.00;72672.38;10213519;29;20235;-69
2023/07/28 20:35:56;;;;;;;3.35;1.10;;;;;;;-145.68;100.00;72650.41;10213377;29;20223;-69
2023/07/28 20:40:59;;;;;;;1.35;1.27;;;;;;;-145.68;100.00;72652.41;10213045;29;20274;-69
2023/07/28 20:46:00;;;;;;;3.15;1.40;;;;;;;-145.68;100.00;72658.38;10213254;29;20235;-69
2023/07/28 20:51:00;;;;;;;2.40;1.40;;;;;;;-145.68;100.00;72672.38;10212416;29;20267;-69
2023/07/28 20:56:01;;;;;;;1.20;1.20;;;;;;;-145.68;100.00;72632.41;10212835;29;20211;-69
2023/07/28 21:01:01;;;;;;;3.28;1.02;;;;;;;-145.68;100.00;72632.41;10212310;29;20239;-69
2023/07/28 21:06:02;;;;;;;1.90;1.13;;;;;;;-145.68;100.00;72608.44;10211692;29;20247;-69
2023/07/28 21:11:02;;;;;;;2.05;1.00;;;;;;;-145.68;100.00;72600.44;10212108;29;20246;-70
2023/07/28 21:16:04;;;;;;;1.65;1.20;;;;;;;-145.68;100.00;72602.44;10211701;29;20557;-69
2023/07/28 21:21:04;;;;;;;1.05;1.05;;;;;;;-145.68;100.00;72620.41;10211796;29;20688;-69
2023/07/28 21:26:06;;;;;;;2.38;1.30;;;;;;;-145.68;100.00;72644.41;10211491;29;20401;-69
2023/07/28 21:31:06;;;;;;;2.17;1.67;;;;;;;-145.68;100.00;72670.38;10211268;29;20243;-69
2023/07/28 21:36:07;;;;;;;3.45;1.95;;;;;;;-145.68;100.00;72668.38;10211268;29;20580;-69
2023/07/28 21:41:08;;;;;;;1.30;1.20;;;;;;;-145.68;100.00;72646.41;10211002;29;20247;-70
2023/07/28 21:46:08;;;;;;;1.70;1.60;;;;;;;-145.68;100.00;72632.41;10211084;29;20573;-70
2023/07/28 21:51:08;;;;;;;1.50;1.40;;;;;;;-145.68;100.00;72616.44;10193361;29;20246;-70
2023/07/28 21:56:09;;;;;;;2.97;1.40;;;;;;;-145.68;100.00;72642.41;10210818;29;20633;-69
2023/07/28 22:01:09;;;;;;;2.15;1.40;;;;;;;-145.68;100.00;72644.41;10210724;29;20243;-70
2023/07/28 22:06:10;;;;;;;3.13;2.08;;;;;;;-145.68;100.00;72650.41;10210697;29;20223;-70
2023/07/28 22:11:10;;;;;;;2.55;2.03;;;;;;;-145.68;100.00;72648.41;10210203;29;20248;-70
2023/07/28 22:16:11;;;;;;;2.15;1.90;;;;;;;-145.68;100.00;72648.41;10210646;29;20302;-69
2023/07/28 22:21:11;;;;;;;2.20;2.00;;;;;;;-145.68;100.00;72666.38;10210357;29;20240;-70
2023/07/28 22:26:12;;;;;;;2.22;1.55;;;;;;;-145.68;100.00;72654.41;10210143;29;20219;-69
2023/07/28 22:31:12;;;;;;;3.13;1.98;;;;;;;-145.68;100.00;72656.41;10212084;29;20330;-69
2023/07/28 22:36:13;;;;;;;2.38;1.73;;;;;;;-145.68;100.00;72680.38;10211177;29;20208;-69
2023/07/28 22:41:13;;;;;;;4.22;1.88;;;;;;;-145.68;100.00;72662.38;10209978;29;20243;-69